Latest Weather Observations for Warruwi

IDD60801

Issued at 5:35 pm CST Monday 24 November 2014 (issued every 30 minutes, with the page automatically refreshed every 10 minutes)

About weather observations | Map of weather stations | Latest weather observations for NT | Other Formats
Station Details ID: 014401 Name: WARRUWI AIRPORT Lat: -11.65 Lon: 133.38 Height: 19.2 m
Data from the previous 72 hours. | See also: Recent months at Warruwi
Date/Time
CST
Temp
°C
App
Temp
°C
Dew
Point
Rel
Hum
%
Delta-T
°C
Wind Press
QNH
hPa
Press
MSL
hPa
Rain
since 9 am
mm
Dir
 
Spd
km/h
Gust
km/h
Spd
kts
Gust
kts
24/05:30pm 30.3 32.9 21.9 60 5.7 N 11 26 6 14 1007.0 1006.8 0.0
24/05:00pm 30.7 32.2 21.2 57 6.4 NE 15 24 8 13 1006.6 1006.4 0.0
24/04:30pm 31.1 32.8 21.6 57 6.4 NE 15 24 8 13 1006.7 1006.5 0.0
24/04:00pm 31.5 32.7 22.2 57 6.3 NNE 19 30 10 16 1006.8 1006.6 0.0
24/03:30pm 32.1 34.5 22.2 56 6.8 NNE 13 26 7 14 1007.4 1007.2 0.0
24/03:00pm 32.5 34.1 21.4 52 7.5 NE 15 24 8 13 1007.8 1007.6 0.0
24/02:30pm 32.5 34.2 21.0 50 7.7 ENE 13 22 7 12 1008.3 1008.1 0.0
24/02:00pm 33.0 34.7 20.2 47 8.5 ENE 11 19 6 10 1008.7 1008.5 0.0
24/01:30pm 32.7 35.1 22.2 54 7.2 ENE 13 19 7 10 1009.3 1009.1 0.0
24/01:00pm 32.2 34.1 21.4 53 7.3 E 13 20 7 11 1009.9 1009.7 0.0
24/12:30pm 32.2 34.1 21.4 53 7.3 E 13 22 7 12 1010.6 1010.4 0.0
24/12:00pm 32.9 35.2 22.7 55 7.0 E 15 20 8 11 1010.9 1010.7 0.0
24/11:30am 32.3 34.3 21.5 53 7.3 E 13 20 7 11 1011.3 1011.1 0.0
24/11:00am 32.3 34.3 21.5 53 7.3 ESE 13 19 7 10 1011.6 1011.4 0.0
24/10:30am 31.5 33.4 21.4 55 6.8 E 13 19 7 10 1011.7 1011.5 0.0
24/10:00am 31.3 33.7 22.3 58 6.1 E 13 20 7 11 1011.6 1011.4 0.0
24/09:30am 31.4 34.1 22.1 57 6.3 E 11 15 6 8 1011.4 1011.2 0.0
24/09:00am 30.4 34.1 22.3 62 5.5 NE 6 11 3 6 1011.1 1010.9 0.0
24/08:30am 30.4 34.1 22.6 63 5.3 E 7 13 4 7 1010.9 1010.7 0.0
24/08:00am 30.2 34.1 22.9 65 5.0 E 7 11 4 6 1011.0 1010.8 0.0
24/07:30am 29.4 34.1 23.4 70 4.1 NNE 4 9 2 5 1010.7 1010.5 0.0
24/07:00am 28.8 34.5 23.7 74 3.5 CALM 0 2 0 1 1010.5 1010.3 0.0
24/06:30am 27.1 32.7 23.6 81 2.4 CALM 0 4 0 2 1010.1 1009.9 0.0
24/06:00am 26.8 32.2 23.3 81 2.4 CALM 0 0 0 0 1010.0 1009.8 0.0
24/05:30am 27.3 32.7 23.3 79 2.7 CALM 0 2 0 1 1009.8 1009.6 0.0
24/05:00am 27.5 32.9 23.3 78 2.9 CALM 0 0 0 0 1009.5 1009.3 0.0
24/04:30am 27.7 32.5 23.5 78 2.9 NE 4 7 2 4 1009.3 1009.1 0.0
24/04:00am 27.8 32.7 23.6 78 2.9 NNE 4 9 2 5 1009.2 1009.0 0.0
24/03:30am 28.1 32.6 23.7 77 3.0 NE 6 11 3 6 1009.3 1009.1 0.0
24/03:00am 28.0 32.4 23.4 76 3.2 ENE 6 9 3 5 1009.3 1009.1 0.0
24/02:30am 28.1 32.6 23.7 77 3.0 NE 6 9 3 5 1009.5 1009.3 0.0
24/02:00am 28.0 32.5 23.6 77 3.0 NE 6 11 3 6 1009.5 1009.3 0.0
24/01:30am 28.0 32.5 23.6 77 3.0 NE 6 9 3 5 1009.6 1009.4 0.0
24/01:00am 28.1 32.4 23.7 77 3.0 NE 7 15 4 8 1009.9 1009.7 0.0
24/12:30am 28.2 32.6 23.8 77 3.0 NE 7 13 4 7 1010.2 1010.0 0.0
24/12:00am 28.3 32.6 23.7 76 3.2 NE 7 15 4 8 1010.5 1010.3 0.0
 
Date/Time
CST
Temp
°C
App
Temp
°C
Dew
Point
Rel
Hum
%
Delta-T
°C
Wind Press
QNH
hPa
Press
MSL
hPa
Rain
since 9 am
mm
Dir
 
Spd
km/h
Gust
km/h
Spd
kts
Gust
kts
23/11:30pm 28.3 32.6 23.7 76 3.2 NE 7 13 4 7 1010.4 1010.2 0.0
23/11:00pm 28.3 32.5 23.4 75 3.4 NE 7 15 4 8 1010.5 1010.3 0.0
23/10:30pm 28.4 32.6 23.5 75 3.4 NE 7 15 4 8 1010.4 1010.2 0.0
23/10:00pm 28.3 32.7 23.4 75 3.4 NE 6 11 3 6 1010.3 1010.1 0.0
23/09:30pm 28.5 32.3 23.4 74 3.5 NE 9 22 5 12 1010.2 1010.0 0.0
23/09:00pm 28.5 32.7 23.4 74 3.5 NE 7 13 4 7 1009.8 1009.6 0.0
23/08:30pm 28.5 31.7 23.0 72 3.8 NNE 11 19 6 10 1009.4 1009.2 0.0
23/08:00pm 28.6 32.3 23.3 73 3.6 NE 9 20 5 11 1009.2 1009.0 0.0
23/07:30pm 28.6 32.0 23.3 73 3.6 NNE 11 20 6 11 1008.9 1008.7 0.0
23/07:00pm 28.8 31.2 23.0 71 4.0 NE 15 33 8 18 1008.6 1008.4 0.0
23/06:30pm 29.2 31.7 23.2 70 4.1 NE 15 26 8 14 1008.6 1008.4 0.0
23/06:00pm 29.7 32.0 22.7 66 4.8 NE 15 26 8 14 1008.6 1008.4 0.0
23/05:30pm 30.3 32.9 22.7 64 5.2 NE 13 24 7 13 1008.6 1008.4 0.0
23/05:00pm 31.3 34.2 23.1 61 5.6 NE 13 30 7 16 1008.6 1008.4 0.0
23/04:30pm 31.5 33.4 22.8 60 6.0 NE 17 26 9 14 1008.6 1008.4 0.0
23/04:00pm 32.3 34.5 21.8 54 7.1 ENE 13 24 7 13 1008.6 1008.4 0.0
23/03:30pm 32.6 34.6 21.5 52 7.5 NE 13 19 7 10 1008.9 1008.7 0.0
23/03:00pm 32.8 33.9 21.3 50 7.8 E 17 26 9 14 1009.2 1009.0 0.0
23/02:30pm 33.0 34.2 22.1 52 7.4 E 19 28 10 15 1009.5 1009.3 0.0
23/02:00pm 33.8 34.3 20.9 46 8.7 E 19 26 10 14 1009.9 1009.7 0.0
23/01:30pm 34.0 33.4 18.5 40 10.1 E 19 24 10 13 1010.3 1010.1 0.0
23/01:00pm 32.9 34.0 20.4 47 8.3 E 15 20 8 11 1010.6 1010.4 0.0
23/12:30pm 33.5 35.5 21.6 49 8.1 E 13 17 7 9 1010.7 1010.5 0.0
23/12:00pm 32.8 35.8 22.0 53 7.4 E 9 15 5 8 1011.2 1011.0 0.0
23/11:30am 32.4 35.5 22.2 55 7.0 E 9 19 5 10 1011.7 1011.5 0.0
23/11:00am 31.5 34.4 21.7 56 6.6 E 9 15 5 8 1012.1 1011.9 0.0
23/10:30am 31.7 35.2 23.5 62 5.7 E 11 20 6 11 1012.2 1012.0 0.0
23/10:00am 31.6 34.7 22.9 60 6.0 E 11 15 6 8 1012.5 1012.3 0.0
23/09:30am 31.3 33.1 22.6 60 6.0 E 17 20 9 11 1012.6 1012.4 0.0
23/09:00am 31.1 34.1 22.7 61 5.7 E 11 15 6 8 1012.5 1012.3 0.0
23/08:30am 31.2 35.1 23.0 61 5.6 E 7 13 4 7 1012.5 1012.3 0.0
23/08:00am 30.5 34.4 22.9 64 5.2 ENE 7 15 4 8 1012.1 1011.9 0.0
23/07:30am 29.7 33.8 23.2 68 4.5 ENE 7 13 4 7 1011.9 1011.7 0.0
23/07:00am 29.3 34.2 24.4 75 3.4 NE 6 13 3 7 1011.8 1011.6 0.0
23/06:30am 27.7 33.6 24.1 81 2.5 CALM 0 0 0 0 1011.6 1011.4 0.0
23/06:00am 27.3 32.7 23.3 79 2.7 CALM 0 4 0 2 1011.2 1011.0 0.0
23/05:30am 27.8 32.7 23.6 78 2.9 NE 4 7 2 4 1011.0 1010.8 0.0
23/05:00am 28.1 33.0 23.7 77 3.0 NE 4 9 2 5 1010.8 1010.6 0.0
23/04:30am 28.0 32.7 23.4 76 3.2 NE 4 9 2 5 1010.4 1010.2 0.0
23/04:00am 28.2 32.5 23.6 76 3.2 NE 7 13 4 7 1010.3 1010.1 0.0
23/03:30am 28.2 32.8 23.8 77 3.0 NE 6 11 3 6 1010.4 1010.2 0.0
23/03:00am 28.2 32.9 24.0 78 2.9 NNE 6 9 3 5 1010.5 1010.3 0.0
23/02:30am 28.2 33.1 24.4 80 2.6 ENE 6 11 3 6 1010.5 1010.3 0.0
23/02:00am 28.2 33.1 24.4 80 2.6 NE 6 11 3 6 1010.4 1010.2 0.0
23/01:30am 28.1 33.5 24.5 81 2.5 NE 4 9 2 5 1010.4 1010.2 0.0
23/01:00am 27.9 33.2 24.3 81 2.5 NNE 4 6 2 3 1010.8 1010.6 0.0
23/12:30am 28.3 33.4 24.7 81 2.5 NNE 6 9 3 5 1010.8 1010.6 0.0
23/12:00am 27.8 33.0 24.2 81 2.5 ENE 4 6 2 3 1010.8 1010.6 0.0
 
Date/Time
CST
Temp
°C
App
Temp
°C
Dew
Point
Rel
Hum
%
Delta-T
°C
Wind Press
QNH
hPa
Press
MSL
hPa
Rain
since 9 am
mm
Dir
 
Spd
km/h
Gust
km/h
Spd
kts
Gust
kts
22/11:30pm 27.8 33.3 24.0 80 2.6 NNE 2 4 1 2 1010.8 1010.6 0.0
22/11:00pm 28.0 33.1 24.0 79 2.8 NNE 4 6 2 3 1010.9 1010.7 0.0
22/10:30pm 28.3 33.4 24.1 78 2.9 NNE 4 7 2 4 1011.0 1010.8 0.0
22/10:00pm 28.5 33.6 24.1 77 3.0 NNE 4 7 2 4 1011.1 1010.9 0.0
22/09:30pm 28.5 33.2 23.9 76 3.2 NNE 6 9 3 5 1011.1 1010.9 0.0
22/09:00pm 28.7 33.3 23.8 75 3.4 NNE 6 11 3 6 1010.9 1010.7 0.0
22/08:30pm 28.9 33.4 24.0 75 3.4 NNE 7 11 4 6 1010.6 1010.4 0.0
22/08:00pm 28.9 33.3 23.8 74 3.5 NNE 7 13 4 7 1010.5 1010.3 0.0
22/07:30pm 29.1 33.6 24.0 74 3.5 NNE 7 15 4 8 1010.1 1009.9 0.0
22/07:00pm 29.2 33.1 23.6 72 3.9 NE 9 17 5 9 1009.8 1009.6 0.0
22/06:30pm 29.5 32.8 23.2 69 4.3 NNE 11 17 6 9 1009.5 1009.3 0.0
22/06:00pm 30.6 34.3 23.3 65 5.0 NE 9 19 5 10 1009.3 1009.1 0.0
22/05:30pm 30.9 33.4 22.5 61 5.7 NE 13 22 7 12 1009.2 1009.0 0.0
22/05:00pm 31.4 34.2 23.0 61 5.8 NE 13 20 7 11 1009.1 1008.9 0.0
22/04:30pm 31.7 34.3 22.7 59 6.2 ENE 13 20 7 11 1009.0 1008.8 0.0
22/04:00pm 31.9 34.3 22.3 56 6.5 NE 13 20 7 11 1009.2 1009.0 0.0
22/03:30pm 33.0 35.4 23.0 55 6.9 NNE 15 26 8 14 1009.3 1009.1 0.0
22/03:00pm 32.9 35.6 23.5 57 6.5 ENE 15 24 8 13 1009.8 1009.6 0.0
22/02:30pm 32.6 34.3 23.0 57 6.6 E 19 28 10 15 1009.9 1009.7 0.0
22/02:00pm 32.5 34.7 22.6 56 6.8 ENE 15 22 8 12 1010.5 1010.3 0.0
22/01:30pm 32.5 33.8 21.7 53 7.3 ENE 17 26 9 14 1010.8 1010.6 0.0
22/01:00pm 32.5 34.3 22.6 56 6.8 E 17 24 9 13 1011.3 1011.1 0.0
22/12:30pm 32.4 34.0 22.2 55 7.0 E 17 22 9 12 1011.6 1011.4 0.0
22/12:00pm 32.4 34.2 21.9 54 7.1 E 15 22 8 12 1011.9 1011.7 0.0
22/11:30am 32.4 34.8 22.2 55 7.0 E 13 20 7 11 1012.0 1011.8 0.0
22/11:00am 31.7 34.0 22.1 56 6.5 E 13 20 7 11 1012.2 1012.0 0.0
22/10:30am 32.0 35.0 23.3 60 6.0 E 13 19 7 10 1012.4 1012.2 0.0
22/10:00am 31.4 34.2 23.0 61 5.8 E 13 19 7 10 1012.5 1012.3 0.0
22/09:30am 30.8 33.3 22.4 61 5.7 E 13 17 7 9 1012.4 1012.2 0.0
22/09:00am 30.9 34.4 22.8 62 5.5 E 9 15 5 8 1012.3 1012.1 0.0
22/08:30am 30.9 34.1 23.0 62 5.4 E 11 19 6 10 1012.1 1011.9 0.0
22/08:00am 30.2 33.8 23.1 65 4.9 ENE 9 15 5 8 1011.9 1011.7 0.0
22/07:30am 29.6 33.6 23.1 68 4.5 ENE 7 13 4 7 1011.6 1011.4 0.0
22/07:00am 29.0 33.2 23.2 71 4.0 NE 6 11 3 6 1011.5 1011.3 0.0
22/06:30am 28.3 32.2 23.0 73 3.6 NE 7 11 4 6 1011.1 1010.9 0.0
22/06:00am 28.2 32.3 23.3 75 3.4 NE 7 13 4 7 1010.9 1010.7 0.0
22/05:30am 28.1 32.3 23.2 74 3.4 NE 6 13 3 7 1010.6 1010.4 0.0
22/05:00am 28.3 32.4 23.2 74 3.5 NE 7 15 4 8 1010.4 1010.2 0.0
22/04:30am 28.0 32.1 23.2 75 3.3 NE 7 11 4 6 1009.9 1009.7 0.0
22/04:00am 28.0 32.1 22.9 74 3.5 NE 6 9 3 5 1009.9 1009.7 0.0
22/03:30am 28.2 31.7 22.9 73 3.6 NE 9 17 5 9 1009.9 1009.7 0.0
22/03:00am 28.1 32.0 23.0 74 3.5 NE 7 17 4 9 1009.9 1009.7 0.0
22/02:30am 28.0 32.4 23.4 76 3.2 NE 6 13 3 7 1009.9 1009.7 0.0
22/02:00am 28.0 32.5 23.6 77 3.0 NNE 6 13 3 7 1010.0 1009.8 0.0
22/01:30am 27.9 32.8 23.7 78 2.9 NE 4 11 2 6 1010.2 1010.0 0.0
22/01:00am 27.7 32.6 23.7 79 2.8 NNE 4 7 2 4 1010.4 1010.2 0.0
22/12:30am 27.7 32.6 23.7 79 2.8 NNE 4 6 2 3 1010.4 1010.2 0.0
22/12:00am 27.5 32.4 23.7 80 2.6 NNE 4 6 2 3 1010.4 1010.2 0.0
 
Date/Time
CST
Temp
°C
App
Temp
°C
Dew
Point
Rel
Hum
%
Delta-T
°C
Wind Press
QNH
hPa
Press
MSL
hPa
Rain
since 9 am
mm
Dir
 
Spd
km/h
Gust
km/h
Spd
kts
Gust
kts
21/11:30pm 27.4 32.5 23.4 79 2.7 NNE 2 4 1 2 1010.6 1010.4 0.0
21/11:00pm 27.6 32.3 23.4 78 2.9 NNE 4 6 2 3 1010.6 1010.4 0.0
21/10:30pm 27.5 32.6 23.3 78 2.9 NNE 2 4 1 2 1010.4 1010.2 0.0
21/10:00pm 27.8 32.8 23.2 76 3.1 N 2 4 1 2 1010.1 1009.9 0.0
21/09:30pm 28.1 32.7 23.2 74 3.4 NNE 4 7 2 4 1009.8 1009.6 0.0
21/09:00pm 28.2 32.9 23.3 75 3.4 NNE 4 7 2 4 1009.7 1009.5 0.0
21/08:30pm 28.4 32.6 23.1 73 3.6 NNE 6 7 3 4 1009.6 1009.4 0.0
21/08:00pm 28.7 32.9 23.1 71 3.8 NE 6 9 3 5 1009.6 1009.4 0.0
21/07:30pm 28.9 33.1 23.1 71 4.0 NE 6 9 3 5 1009.7 1009.5 0.0
21/07:00pm 29.3 33.4 23.0 69 4.3 NE 6 9 3 5 1009.4 1009.2 0.0
21/06:30pm 29.6 33.4 22.8 67 4.6 NE 7 13 4 7 1009.3 1009.1 0.0
21/06:00pm 30.1 33.3 22.3 63 5.3 ENE 9 17 5 9 1009.4 1009.2 0.0

Other Formats:

Comma delimited format used in spreadsheet applications
http://www.bom.gov.au/fwo/IDD60801/IDD60801.94139.axf

JavaScript Object Notation format (JSON) in row-major order
http://www.bom.gov.au/fwo/IDD60801/IDD60801.94139.json